createdAt,value
2018-03-24T00:00:30.523Z,24.60
2018-03-24T00:02:58.892Z,28.38
2018-03-24T00:05:27.416Z,26.55
2018-03-24T00:07:55.037Z,26.87
2018-03-24T00:10:22.717Z,31.90
2018-03-24T00:12:50.411Z,27.98
2018-03-24T00:15:18.066Z,26.40
2018-03-24T00:17:46.268Z,34.28
2018-03-24T00:20:13.920Z,28.60
2018-03-24T00:22:41.553Z,24.30
2018-03-24T00:25:09.153Z,30.15
2018-03-24T00:27:37.620Z,27.75
2018-03-24T00:30:05.250Z,38.38
2018-03-24T00:32:33.660Z,32.67
2018-03-24T00:35:02.161Z,28.77
2018-03-24T00:37:29.769Z,24.80
2018-03-24T00:39:57.380Z,28.27
2018-03-24T00:42:25.090Z,31.77
2018-03-24T00:44:53.528Z,26.30
2018-03-24T00:47:21.266Z,26.23
2018-03-24T00:49:49.117Z,20.62
2018-03-24T00:52:16.821Z,21.37
2018-03-24T00:54:44.489Z,28.08
2018-03-24T00:57:12.185Z,23.85
2018-03-24T00:59:40.553Z,28.30
2018-03-24T01:02:08.210Z,23.27
2018-03-24T01:04:35.798Z,23.55
2018-03-24T01:07:03.411Z,27.02
2018-03-24T01:09:31.028Z,24.90
2018-03-24T01:11:58.669Z,25.83
2018-03-24T01:14:27.060Z,23.33
2018-03-24T01:16:54.705Z,20.90
2018-03-24T01:19:23.125Z,20.92
2018-03-24T01:21:50.844Z,25.00
2018-03-24T01:24:18.417Z,26.60
2018-03-24T01:26:46.278Z,24.35
2018-03-24T01:29:15.543Z,26.37
2018-03-24T01:31:43.385Z,24.52
2018-03-24T01:34:11.034Z,22.13
2018-03-24T01:36:38.649Z,20.58
2018-03-24T01:39:06.338Z,23.48
2018-03-24T01:41:34.745Z,20.90
2018-03-24T01:44:02.492Z,19.77
2018-03-24T01:46:30.127Z,20.10
2018-03-24T01:48:58.475Z,22.67
2018-03-24T01:51:26.167Z,24.63
2018-03-24T01:53:53.803Z,28.00
2018-03-24T01:56:21.384Z,22.45
2018-03-24T01:58:48.965Z,23.10
2018-03-24T02:01:17.818Z,22.48
2018-03-24T02:03:46.478Z,21.60
2018-03-24T02:06:14.207Z,21.65
2018-03-24T02:08:42.609Z,22.55
2018-03-24T02:11:10.205Z,21.12
2018-03-24T02:13:38.610Z,21.65
2018-03-24T02:16:07.641Z,17.48
2018-03-24T02:18:36.105Z,30.52
2018-03-24T02:21:04.676Z,20.67
2018-03-24T02:23:32.273Z,22.30
2018-03-24T02:25:59.941Z,19.02
2018-03-24T02:28:27.612Z,21.00
2018-03-24T02:30:55.291Z,23.15
2018-03-24T02:33:22.887Z,19.77
2018-03-24T02:35:51.389Z,22.00
2018-03-24T02:38:18.996Z,23.83
2018-03-24T02:40:46.608Z,20.75
2018-03-24T02:43:14.214Z,25.23
2018-03-24T02:45:41.885Z,25.15
2018-03-24T02:48:09.556Z,26.12
2018-03-24T02:50:37.191Z,25.77
2018-03-24T02:53:04.842Z,26.08
2018-03-24T02:55:32.462Z,23.95
2018-03-24T02:58:00.181Z,29.85
2018-03-24T03:00:27.939Z,26.75
2018-03-24T03:02:55.624Z,32.22
2018-03-24T03:05:23.248Z,28.50
2018-03-24T03:07:50.875Z,28.23
2018-03-24T03:10:18.498Z,23.00
2018-03-24T03:12:46.164Z,21.08
2018-03-24T03:15:13.860Z,28.58
2018-03-24T03:17:41.576Z,25.12
2018-03-24T03:20:09.262Z,30.85
2018-03-24T03:22:36.893Z,33.20
2018-03-24T03:25:04.504Z,26.67
2018-03-24T03:27:32.123Z,34.20
2018-03-24T03:30:00.737Z,29.42
2018-03-24T03:32:29.132Z,35.47
2018-03-24T03:34:58.193Z,34.85
2018-03-24T03:37:26.606Z,32.60
2018-03-24T03:39:55.038Z,32.03
2018-03-24T03:42:22.690Z,28.00
2018-03-24T03:44:50.325Z,28.55
2018-03-24T03:47:18.808Z,27.92
2018-03-24T03:49:47.171Z,29.00
2018-03-24T03:52:15.842Z,32.08
2018-03-24T03:54:43.425Z,29.95
2018-03-24T03:57:11.840Z,37.65
2018-03-24T03:59:39.506Z,30.62
2018-03-24T04:02:07.166Z,28.70
2018-03-24T04:04:35.689Z,32.22
2018-03-24T04:07:03.440Z,29.12
2018-03-24T04:09:31.025Z,32.35
2018-03-24T04:11:58.634Z,34.22
2018-03-24T04:14:26.317Z,30.92
2018-03-24T04:16:53.947Z,30.25
2018-03-24T04:19:21.575Z,33.97
2018-03-24T04:21:49.248Z,33.47
2018-03-24T04:24:17.690Z,51.30
2018-03-24T04:26:45.575Z,31.37
2018-03-24T04:29:13.160Z,36.90
2018-03-24T04:31:40.843Z,33.28
2018-03-24T04:34:08.498Z,33.95
2018-03-24T04:36:36.136Z,34.35
2018-03-24T04:39:03.814Z,31.02
2018-03-24T04:41:31.465Z,29.60
2018-03-24T04:43:59.056Z,41.55
2018-03-24T04:46:27.240Z,37.03
2018-03-24T04:48:54.942Z,36.05
2018-03-24T04:51:23.321Z,32.25
2018-03-24T04:53:50.934Z,37.15
2018-03-24T04:56:18.560Z,36.45
2018-03-24T04:58:46.929Z,36.90
2018-03-24T05:01:15.498Z,35.65
2018-03-24T05:03:44.172Z,39.75
2018-03-24T05:06:12.280Z,36.58
2018-03-24T05:08:40.780Z,34.67
2018-03-24T05:11:08.418Z,39.63
2018-03-24T05:13:36.093Z,38.80
2018-03-24T05:16:03.838Z,35.47
2018-03-24T05:18:32.056Z,36.58
2018-03-24T05:20:59.690Z,40.55
2018-03-24T05:23:28.073Z,32.33
2018-03-24T05:25:57.139Z,33.13
2018-03-24T05:28:24.792Z,34.83
2018-03-24T05:30:52.420Z,35.03
2018-03-24T05:33:20.488Z,30.77
2018-03-24T05:35:48.339Z,34.63
2018-03-24T05:38:15.973Z,32.90
2018-03-24T05:40:43.708Z,25.65
2018-03-24T05:43:11.321Z,35.67
2018-03-24T05:45:39.806Z,30.92
2018-03-24T05:48:07.493Z,35.00
2018-03-24T05:50:35.151Z,34.25
2018-03-24T05:53:02.879Z,29.10
2018-03-24T05:55:31.284Z,35.15
2018-03-24T05:57:58.895Z,31.87
2018-03-24T06:00:27.500Z,30.20
2018-03-24T06:02:55.723Z,29.83
2018-03-24T06:05:23.399Z,27.58
2018-03-24T06:07:51.048Z,33.78
2018-03-24T06:10:19.315Z,29.67
2018-03-24T06:12:46.933Z,37.47
2018-03-24T06:15:14.541Z,31.73
2018-03-24T06:17:42.221Z,30.75
2018-03-24T06:20:09.892Z,30.02
2018-03-24T06:22:37.968Z,32.50
2018-03-24T06:25:05.599Z,30.95
2018-03-24T06:27:33.211Z,27.75
2018-03-24T06:30:00.886Z,34.00
2018-03-24T06:32:29.301Z,31.83
2018-03-24T06:34:57.740Z,29.60
2018-03-24T06:37:26.168Z,34.50
2018-03-24T06:39:53.748Z,45.90
2018-03-24T06:42:21.332Z,35.75
2018-03-24T06:44:49.038Z,34.92
2018-03-24T06:47:18.634Z,34.72
2018-03-24T06:49:46.315Z,34.33
2018-03-24T06:52:14.104Z,33.38
2018-03-24T06:54:42.516Z,31.85
2018-03-24T06:57:10.203Z,28.20
2018-03-24T06:59:38.595Z,27.45
2018-03-24T07:02:06.225Z,28.12
2018-03-24T07:04:34.090Z,33.00
2018-03-24T07:07:02.571Z,31.85
2018-03-24T07:09:30.147Z,26.87
2018-03-24T07:11:58.581Z,30.15
2018-03-24T07:14:26.209Z,22.77
2018-03-24T07:16:53.860Z,27.90
2018-03-24T07:19:23.140Z,36.00
2018-03-24T07:21:50.734Z,28.75
2018-03-24T07:24:18.426Z,31.25
2018-03-24T07:26:46.502Z,32.38
2018-03-24T07:29:14.138Z,24.25
2018-03-24T07:31:41.798Z,26.45
2018-03-24T07:34:10.331Z,29.40
2018-03-24T07:36:38.941Z,26.37
2018-03-24T07:39:07.396Z,29.05
2018-03-24T07:41:34.987Z,24.23
2018-03-24T07:44:02.679Z,25.83
2018-03-24T07:46:30.301Z,27.98
2018-03-24T07:48:59.290Z,25.75
2018-03-24T07:51:27.721Z,25.12
2018-03-24T07:53:55.378Z,24.33
2018-03-24T07:56:23.027Z,23.42
2018-03-24T07:58:50.606Z,26.12
2018-03-24T08:01:18.278Z,26.75
2018-03-24T08:03:45.896Z,24.80
2018-03-24T08:06:13.506Z,25.77
2018-03-24T08:08:41.117Z,27.83
2018-03-24T08:11:09.504Z,26.70
2018-03-24T08:13:37.900Z,22.10
2018-03-24T08:16:05.517Z,23.48
2018-03-24T08:18:33.978Z,23.38
2018-03-24T08:21:03.427Z,23.90
2018-03-24T08:23:31.074Z,22.95
2018-03-24T08:25:59.458Z,27.98
2018-03-24T08:28:27.843Z,34.75
2018-03-24T08:30:56.320Z,21.75
2018-03-24T08:33:25.578Z,24.77
2018-03-24T08:35:53.279Z,21.48
2018-03-24T08:38:20.920Z,23.17
2018-03-24T08:40:48.994Z,20.27
2018-03-24T08:43:16.600Z,25.27
2018-03-24T08:45:44.244Z,24.08
2018-03-24T08:48:12.720Z,24.87
2018-03-24T08:50:42.037Z,27.50
2018-03-24T08:53:10.614Z,29.08
2018-03-24T08:55:38.233Z,23.62
2018-03-24T08:58:05.926Z,27.77
2018-03-24T09:00:33.585Z,29.85
2018-03-24T09:03:01.947Z,23.30
2018-03-24T09:05:30.362Z,26.05
2018-03-24T09:08:12.190Z,25.80
2018-03-24T09:10:40.262Z,26.90
2018-03-24T09:13:09.639Z,25.30
2018-03-24T09:15:37.287Z,24.73
2018-03-24T09:18:05.098Z,24.95
2018-03-24T09:20:32.777Z,20.23
2018-03-24T09:23:00.450Z,26.98
2018-03-24T09:25:28.866Z,22.85
2018-03-24T09:27:56.498Z,22.83
2018-03-24T09:30:24.947Z,20.77
2018-03-24T09:32:53.278Z,22.62
2018-03-24T09:35:20.897Z,25.83
2018-03-24T09:37:48.607Z,21.12
2018-03-24T09:40:16.194Z,21.85
2018-03-24T09:42:44.168Z,32.45
2018-03-24T09:45:11.763Z,24.95
2018-03-24T09:47:40.410Z,22.30
2018-03-24T09:50:07.991Z,20.95
2018-03-24T09:52:35.604Z,23.65
2018-03-24T09:55:03.233Z,19.85
2018-03-24T09:57:30.854Z,19.55
2018-03-24T09:59:58.497Z,22.87
2018-03-24T10:02:26.149Z,17.62
2018-03-24T10:04:53.832Z,24.00
2018-03-24T10:07:21.420Z,21.73
2018-03-24T10:09:49.032Z,20.05
2018-03-24T10:12:16.668Z,25.48
2018-03-24T10:14:44.346Z,19.92
2018-03-24T10:17:12.744Z,19.23
2018-03-24T10:19:41.250Z,21.95
2018-03-24T10:22:20.652Z,19.62
2018-03-24T10:24:48.330Z,36.55
2018-03-24T10:27:15.950Z,19.77
2018-03-24T10:29:43.574Z,16.05
2018-03-24T10:32:11.556Z,13.48
2018-03-24T10:34:39.589Z,17.62
2018-03-24T10:37:07.185Z,20.92
2018-03-24T10:39:34.850Z,13.38
2018-03-24T10:42:03.269Z,16.30
2018-03-24T10:44:31.695Z,20.35
2018-03-24T10:46:59.274Z,12.10
2018-03-24T10:49:26.883Z,17.10
2018-03-24T10:51:54.556Z,18.23
2018-03-24T10:54:22.304Z,21.00
2018-03-24T10:56:50.635Z,17.55
2018-03-24T10:59:18.464Z,14.80
2018-03-24T11:01:46.168Z,16.15
2018-03-24T11:04:13.813Z,19.85
2018-03-24T11:06:41.429Z,25.65
2018-03-24T11:09:10.649Z,13.50
2018-03-24T11:11:38.286Z,15.93
2018-03-24T11:14:06.659Z,14.40
2018-03-24T11:16:34.287Z,16.00
2018-03-24T11:19:01.899Z,12.80
2018-03-24T11:21:29.519Z,13.25
2018-03-24T11:23:57.138Z,19.08
2018-03-24T11:26:24.779Z,13.13
2018-03-24T11:28:53.184Z,25.95
2018-03-24T11:31:20.779Z,11.25
2018-03-24T11:33:48.436Z,14.00
2018-03-24T11:36:16.088Z,16.65
2018-03-24T11:38:44.447Z,17.87
2018-03-24T11:41:12.053Z,14.00
2018-03-24T11:43:39.711Z,11.75
2018-03-24T11:46:07.353Z,13.98
2018-03-24T11:48:34.962Z,14.30
2018-03-24T11:51:03.383Z,14.40
2018-03-24T11:53:43.403Z,15.30
2018-03-24T11:56:11.490Z,15.70
2018-03-24T11:58:39.108Z,14.98
2018-03-24T12:01:06.748Z,16.95
2018-03-24T12:03:35.037Z,15.40
2018-03-24T12:06:03.588Z,13.52
2018-03-24T12:08:31.288Z,24.45
2018-03-24T12:10:59.267Z,20.12
2018-03-24T12:13:26.961Z,15.38
2018-03-24T12:15:54.642Z,19.02
2018-03-24T12:18:22.428Z,18.10
2018-03-24T12:20:50.055Z,21.52
2018-03-24T12:23:17.785Z,16.75
2018-03-24T12:25:45.424Z,15.00
2018-03-24T12:28:13.027Z,17.20
2018-03-24T12:30:40.642Z,17.92
2018-03-24T12:33:08.319Z,23.20
2018-03-24T12:35:36.858Z,14.10
2018-03-24T12:38:04.486Z,22.55
2018-03-24T12:40:32.970Z,17.27
2018-03-24T12:43:01.344Z,19.87
2018-03-24T12:45:29.780Z,20.80
2018-03-24T12:47:58.248Z,18.05
2018-03-24T12:50:25.851Z,19.00
2018-03-24T12:52:53.616Z,21.35
2018-03-24T12:55:21.258Z,22.20
2018-03-24T12:57:48.960Z,19.00
2018-03-24T13:00:17.514Z,19.65
2018-03-24T13:02:45.166Z,20.83
2018-03-24T13:05:12.815Z,19.67
2018-03-24T13:07:41.224Z,18.65
2018-03-24T13:10:09.612Z,18.92
2018-03-24T13:12:37.206Z,16.70
2018-03-24T13:15:04.918Z,20.62
2018-03-24T13:17:32.660Z,13.40
2018-03-24T13:20:02.006Z,21.62
2018-03-24T13:22:30.403Z,15.55
2018-03-24T13:24:58.087Z,13.93
2018-03-24T13:27:25.710Z,15.20
2018-03-24T13:29:54.105Z,17.35
2018-03-24T13:32:22.499Z,20.27
2018-03-24T13:34:50.088Z,20.80
2018-03-24T13:37:17.695Z,18.55
2018-03-24T13:39:45.357Z,19.42
2018-03-24T13:42:12.987Z,23.95
2018-03-24T13:44:40.672Z,33.13
2018-03-24T13:47:08.270Z,21.25
2018-03-24T13:49:35.888Z,26.42
2018-03-24T13:52:03.525Z,22.98
2018-03-24T13:54:31.147Z,22.87
2018-03-24T13:56:58.783Z,23.17
2018-03-24T13:59:27.213Z,20.25
2018-03-24T14:01:54.831Z,28.08
2018-03-24T14:04:23.214Z,26.90
2018-03-24T14:06:52.240Z,21.08
2018-03-24T14:09:19.839Z,19.35
2018-03-24T14:11:47.446Z,21.83
2018-03-24T14:14:16.032Z,23.87
2018-03-24T14:16:43.664Z,22.00
2018-03-24T14:19:12.040Z,18.80
2018-03-24T14:21:39.653Z,18.20
2018-03-24T14:24:07.586Z,19.35
2018-03-24T14:26:35.180Z,18.65
2018-03-24T14:29:03.756Z,17.70
2018-03-24T14:31:31.431Z,15.65
2018-03-24T14:33:59.106Z,18.05
2018-03-24T14:36:26.690Z,16.52
2018-03-24T14:38:54.790Z,16.90
2018-03-24T14:41:25.972Z,15.73
2018-03-24T14:43:53.692Z,19.83
2018-03-24T14:46:22.878Z,19.98
2018-03-24T14:48:50.628Z,17.73
2018-03-24T14:51:18.419Z,21.02
2018-03-24T14:53:46.176Z,18.33
2018-03-24T14:56:14.640Z,20.52
2018-03-24T14:58:45.699Z,18.33
2018-03-24T15:01:14.701Z,15.88
2018-03-24T15:03:43.118Z,15.30
2018-03-24T15:06:10.900Z,17.40
2018-03-24T15:08:38.782Z,18.87
2018-03-24T15:11:06.539Z,19.20
2018-03-24T15:13:34.514Z,15.75
2018-03-24T15:16:02.293Z,16.83
2018-03-24T15:18:33.828Z,20.50
2018-03-24T15:21:01.639Z,17.05
2018-03-24T15:23:30.967Z,14.05
2018-03-24T15:25:58.752Z,19.62
2018-03-24T15:28:27.935Z,18.87
2018-03-24T15:31:07.490Z,16.92
2018-03-24T15:33:47.356Z,18.20
2018-03-24T15:36:26.824Z,15.10
2018-03-24T15:38:55.148Z,22.62
2018-03-24T15:41:23.833Z,16.33
2018-03-24T15:43:51.838Z,16.42
2018-03-24T15:46:20.427Z,21.35
2018-03-24T15:48:48.079Z,18.15
2018-03-24T15:51:15.661Z,16.12
2018-03-24T15:53:43.334Z,16.20
2018-03-24T15:56:10.994Z,17.87
2018-03-24T15:58:39.579Z,28.15
2018-03-24T16:01:08.738Z,19.48
2018-03-24T16:03:36.393Z,20.00
2018-03-24T16:06:05.052Z,16.83
2018-03-24T16:08:33.596Z,15.43
2018-03-24T16:11:02.153Z,18.05
2018-03-24T16:13:29.800Z,16.52
2018-03-24T16:15:57.502Z,19.33
2018-03-24T16:18:25.282Z,19.02
2018-03-24T16:20:53.953Z,15.45
2018-03-24T16:23:22.082Z,15.38
2018-03-24T16:25:49.710Z,17.73
2018-03-24T16:28:17.375Z,22.55
2018-03-24T16:30:46.018Z,21.05
2018-03-24T16:33:13.642Z,19.67
2018-03-24T16:35:41.702Z,20.95
2018-03-24T16:38:09.564Z,20.10
2018-03-24T16:40:37.310Z,20.77
2018-03-24T16:43:05.762Z,19.87
2018-03-24T16:45:33.510Z,22.48
2018-03-24T16:48:01.188Z,25.27
2018-03-24T16:50:32.630Z,40.70
2018-03-24T16:53:00.366Z,23.62
2018-03-24T16:55:28.901Z,23.83
2018-03-24T16:57:57.592Z,20.73
2018-03-24T17:00:26.055Z,19.15
2018-03-24T17:02:53.747Z,24.67
2018-03-24T17:05:22.057Z,17.27
2018-03-24T17:07:50.546Z,23.75
2018-03-24T17:10:18.302Z,22.52
2018-03-24T17:12:46.954Z,23.85
2018-03-24T17:15:15.374Z,27.05
2018-03-24T17:17:43.037Z,26.50
2018-03-24T17:20:12.986Z,23.80
2018-03-24T17:22:41.430Z,23.30
2018-03-24T17:25:09.123Z,22.85
2018-03-24T17:27:36.937Z,25.08
2018-03-24T17:30:04.875Z,27.13
2018-03-24T17:32:33.251Z,26.42
2018-03-24T17:35:01.689Z,24.10
2018-03-24T17:37:29.713Z,27.73
2018-03-24T17:39:58.163Z,28.23
2018-03-24T17:42:26.030Z,28.70
2018-03-24T17:44:53.719Z,29.75
2018-03-24T17:47:22.090Z,25.08
2018-03-24T17:49:50.653Z,27.15
2018-03-24T17:52:18.335Z,26.42
2018-03-24T17:54:46.042Z,31.67
2018-03-24T17:57:13.681Z,33.08
2018-03-24T17:59:41.388Z,29.90
2018-03-24T18:02:09.120Z,27.60
2018-03-24T18:04:36.873Z,27.60
2018-03-24T18:07:04.500Z,33.40
2018-03-24T18:09:32.300Z,29.40
2018-03-24T18:12:00.042Z,35.10
2018-03-24T18:14:27.740Z,24.52
2018-03-24T18:16:55.346Z,27.92
2018-03-24T18:19:22.995Z,32.17
2018-03-24T18:21:50.660Z,32.17
2018-03-24T18:24:18.423Z,35.35
2018-03-24T18:26:46.081Z,42.22
2018-03-24T18:29:13.748Z,28.58
2018-03-24T18:31:41.449Z,32.78
2018-03-24T18:34:09.830Z,34.80
2018-03-24T18:36:38.242Z,30.58
2018-03-24T18:39:05.866Z,42.60
2018-03-24T18:41:33.574Z,31.85
2018-03-24T18:44:01.458Z,37.90
2018-03-24T18:46:29.075Z,29.23
2018-03-24T18:48:56.845Z,31.12
2018-03-24T18:51:25.347Z,30.55
2018-03-24T18:53:52.968Z,35.33
2018-03-24T18:56:20.605Z,30.80
2018-03-24T18:58:48.337Z,43.38
2018-03-24T19:01:15.960Z,41.13
2018-03-24T19:03:43.677Z,35.58
2018-03-24T19:06:11.292Z,35.40
2018-03-24T19:08:39.704Z,57.55
2018-03-24T19:11:07.438Z,92.80
2018-03-24T19:13:36.017Z,79.93
2018-03-24T19:16:03.598Z,57.75
2018-03-24T19:18:31.248Z,32.00
2018-03-24T19:20:59.652Z,30.17
2018-03-24T19:23:27.264Z,32.58
2018-03-24T19:25:54.864Z,30.12
2018-03-24T19:28:22.537Z,44.65
2018-03-24T19:30:50.188Z,33.83
2018-03-24T19:33:17.773Z,36.22
2018-03-24T19:35:45.436Z,39.78
2018-03-24T19:38:13.814Z,36.90
2018-03-24T19:40:41.439Z,32.22
2018-03-24T19:43:09.122Z,33.92
2018-03-24T19:45:36.906Z,29.95
2018-03-24T19:48:04.553Z,31.87
2018-03-24T19:50:32.179Z,29.15
2018-03-24T19:53:00.945Z,34.08
2018-03-24T19:55:28.753Z,33.50
2018-03-24T19:57:56.376Z,33.42
2018-03-24T20:00:24.069Z,36.38
2018-03-24T20:02:51.676Z,36.90
2018-03-24T20:05:19.510Z,42.15
2018-03-24T20:07:47.203Z,36.30
2018-03-24T20:10:14.867Z,31.55
2018-03-24T20:12:42.506Z,33.60
2018-03-24T20:15:10.170Z,36.00
2018-03-24T20:17:37.787Z,46.37
2018-03-24T20:20:05.448Z,35.60
2018-03-24T20:22:33.480Z,37.63
2018-03-24T20:25:01.454Z,38.95
2018-03-24T20:27:29.103Z,37.50
2018-03-24T20:29:56.731Z,36.97
2018-03-24T20:32:25.065Z,35.33
2018-03-24T20:34:52.672Z,40.47
2018-03-24T20:37:21.127Z,35.08
2018-03-24T20:39:50.807Z,34.35
2018-03-24T20:42:18.584Z,37.50
2018-03-24T20:44:46.288Z,33.70
2018-03-24T20:47:13.983Z,36.80
2018-03-24T20:49:41.776Z,34.90
2018-03-24T20:52:10.345Z,32.97
2018-03-24T20:54:37.976Z,36.17
2018-03-24T20:57:05.625Z,35.30
2018-03-24T20:59:33.257Z,38.60
2018-03-24T21:02:00.839Z,34.70
2018-03-24T21:04:28.460Z,38.35
2018-03-24T21:06:56.880Z,44.58
2018-03-24T21:09:24.490Z,38.17
2018-03-24T21:11:52.219Z,39.08
2018-03-24T21:14:19.882Z,41.03
2018-03-24T21:16:47.549Z,35.72
2018-03-24T21:19:15.169Z,37.53
2018-03-24T21:21:43.575Z,42.20
2018-03-24T21:24:11.246Z,47.42
2018-03-24T21:26:38.853Z,38.75
2018-03-24T21:29:06.488Z,33.88
2018-03-24T21:31:34.082Z,39.30
2018-03-24T21:34:01.761Z,37.42
2018-03-24T21:36:29.379Z,43.78
2018-03-24T21:38:57.078Z,42.97
2018-03-24T21:41:24.753Z,41.75
2018-03-24T21:43:52.518Z,36.58
2018-03-24T21:46:20.947Z,41.97
2018-03-24T21:48:48.949Z,44.78
2018-03-24T21:51:16.813Z,48.15
2018-03-24T21:53:44.397Z,42.20
2018-03-24T21:56:12.163Z,46.90
2018-03-24T21:58:39.747Z,44.60
2018-03-24T22:01:07.359Z,38.00
2018-03-24T22:03:34.986Z,38.47
2018-03-24T22:06:02.565Z,35.50
2018-03-24T22:08:30.222Z,39.15
2018-03-24T22:10:57.851Z,43.87
2018-03-24T22:13:25.490Z,40.55
2018-03-24T22:15:53.101Z,58.90
2018-03-24T22:18:22.480Z,52.72
2018-03-24T22:20:50.903Z,43.85
2018-03-24T22:23:18.557Z,47.20
2018-03-24T22:25:46.490Z,48.47
2018-03-24T22:28:14.108Z,37.90
2018-03-24T22:30:41.814Z,41.50
2018-03-24T22:33:09.405Z,37.60
2018-03-24T22:35:37.107Z,41.13
2018-03-24T22:38:05.511Z,36.38
2018-03-24T22:40:33.118Z,35.65
2018-03-24T22:43:00.710Z,34.08
2018-03-24T22:45:28.803Z,35.03
2018-03-24T22:47:56.430Z,34.42
2018-03-24T22:50:24.038Z,40.42
2018-03-24T22:52:51.670Z,40.60
2018-03-24T22:55:19.286Z,34.63
2018-03-24T22:57:47.794Z,36.60
2018-03-24T23:00:16.530Z,37.42
2018-03-24T23:02:44.143Z,36.22
2018-03-24T23:05:11.750Z,39.50
2018-03-24T23:07:39.359Z,44.47
2018-03-24T23:10:07.028Z,40.70
2018-03-24T23:12:35.552Z,40.45
2018-03-24T23:15:03.902Z,40.00
2018-03-24T23:17:32.254Z,40.22
2018-03-24T23:19:59.904Z,42.05
2018-03-24T23:22:27.479Z,39.88
2018-03-24T23:24:55.127Z,39.05
2018-03-24T23:27:22.783Z,45.20
2018-03-24T23:29:50.354Z,35.83
2018-03-24T23:32:17.940Z,46.53
2018-03-24T23:34:46.309Z,37.20
2018-03-24T23:37:13.916Z,39.63
2018-03-24T23:39:42.290Z,37.30
2018-03-24T23:42:10.766Z,42.08
2018-03-24T23:44:38.362Z,42.05
2018-03-24T23:47:05.972Z,46.53
2018-03-24T23:49:33.579Z,36.80
2018-03-24T23:52:01.208Z,39.40
2018-03-24T23:54:28.910Z,38.67
2018-03-24T23:56:56.481Z,34.92
2018-03-24T23:59:25.990Z,40.03
